Terminal Aerodrome Forecast
Issued by NWS

Home | Current Version | Previous Version | Text Only | Print | Product List | Glossary On
Versions: 1 2 3 4 5 6 7 8 9 10 11 12 13 14 15 16 17 18 19 20 21 22
176
FTAK31 PAJN 221700
TAFAKT
TAF
PAKT 221730Z 2218/2318 33006KT P6SM SCT003
     FM222100 33011KT P6SM SCT100
     FM230600 33006KT P6SM BCFG SCT005 SCT100
     FM231000 VRB03KT 4SM BR BKN005
     FM231700 33006KT P6SM SCT005 BKN100
      AMD LTD TO CLD VIS AND WIND 2306/2315=

USA.gov is the U.S. government's official web portal to all federal, state and local government web resources and services.